Time;durP1;ratioP1;P1;durP2;ratioP2;P2;SDS_P1;SDS_P2;PMS_P1;PMS_P2;Temp;Humidity;BMP_temperature;BMP_pressure;BME280_temperature;BME280_humidity;BME280_pressure;Samples;Min_cycle;Max_cycle;Signal;HPM_P1;HPM_P2
2023/02/21 02:15:09;;;;;;;8.60;2.30;;;;;;;8.70;60.85;96438.89;108238;1259;100085;-76
2023/02/21 02:18:11;;;;;;;2.80;1.70;;;;;;;8.70;60.95;96432.21;108210;1259;97525;-74
2023/02/21 02:20:57;;;;;;;3.00;2.20;;;;;;;8.72;61.09;96437.25;108231;1259;96165;-75
2023/02/21 02:23:45;;;;;;;3.40;2.00;;;;;;;8.72;61.18;96428.72;108277;1259;103426;-74
2023/02/21 02:26:31;;;;;;;4.20;2.00;;;;;;;8.71;61.26;96421.81;108779;1250;101227;-75
2023/02/21 02:29:08;;;;;;;4.80;2.90;;;;;;;8.71;61.18;96426.21;108881;1251;100080;-74
2023/02/21 02:31:42;;;;;;;4.30;2.20;;;;;;;8.69;61.30;96424.30;108875;1251;96000;-74
2023/02/21 02:34:35;;;;;;;3.60;2.20;;;;;;;8.67;61.35;96425.90;108958;1251;96052;-78
2023/02/21 02:37:10;;;;;;;3.70;2.10;;;;;;;8.65;61.40;96429.13;108994;1251;103428;-78
2023/02/21 02:39:41;;;;;;;3.80;2.30;;;;;;;8.67;61.55;96421.27;108954;1250;101216;-79
2023/02/21 02:42:16;;;;;;;3.30;1.90;;;;;;;8.68;61.57;96417.33;108548;1256;98328;-74
2023/02/21 02:44:54;;;;;;;4.60;2.60;;;;;;;8.68;61.58;96417.53;108855;1251;95625;-75
2023/02/21 02:47:29;;;;;;;5.90;2.40;;;;;;;8.66;61.51;96415.23;108930;1251;95989;-74
2023/02/21 02:49:59;;;;;;;4.60;2.50;;;;;;;8.63;61.77;96419.85;108825;1251;103208;-76
2023/02/21 02:52:27;;;;;;;3.90;2.40;;;;;;;8.60;61.83;96421.11;108641;1251;101592;-77
2023/02/21 02:55:01;;;;;;;3.70;2.00;;;;;;;8.59;62.00;96415.73;108885;1251;100051;-75
2023/02/21 02:57:37;;;;;;;4.20;2.10;;;;;;;8.60;61.96;96415.93;108590;1254;95592;-78
2023/02/21 03:00:09;;;;;;;4.00;2.10;;;;;;;8.59;62.02;96413.20;108868;1251;96490;-75
2023/02/21 03:02:49;;;;;;;;;;;;;;;8.58;62.13;96419.96;108895;1251;103472;-75
2023/02/21 03:05:23;;;;;;;3.30;2.00;;;;;;;8.56;62.22;96427.13;108898;1251;101484;-75
2023/02/21 03:08:20;;;;;;;2.90;1.90;;;;;;;8.54;62.37;96417.71;108941;1251;100623;-74
2023/02/21 03:11:02;;;;;;;5.00;1.90;;;;;;;8.57;62.43;96420.80;108821;1251;95785;-75
2023/02/21 03:13:36;;;;;;;3.80;2.30;;;;;;;8.58;62.51;96413.52;108637;1251;95704;-74
2023/02/21 03:16:14;;;;;;;2.80;1.80;;;;;;;8.61;62.62;96415.17;108617;1251;104907;-74
2023/02/21 03:18:50;;;;;;;4.70;2.00;;;;;;;8.65;62.72;96411.46;108855;1250;101172;-74
2023/02/21 03:21:38;;;;;;;2.60;1.80;;;;;;;8.67;62.67;96419.61;108891;1251;99860;-74
2023/02/21 03:24:06;;;;;;;2.40;1.60;;;;;;;8.70;62.86;96409.88;108908;1251;95572;-74
2023/02/21 03:26:37;;;;;;;3.90;2.20;;;;;;;8.71;62.85;96413.58;108928;1251;95998;-75
2023/02/21 03:29:06;;;;;;;2.50;1.50;;;;;;;8.72;62.71;96418.13;108898;1251;112044;-74
2023/02/21 03:31:44;;;;;;;2.90;1.60;;;;;;;8.75;62.78;96411.48;108937;1251;101263;-74
2023/02/21 03:34:14;;;;;;;2.90;1.70;;;;;;;8.78;62.65;96406.82;108853;1251;99927;-76
2023/02/21 03:36:43;;;;;;;3.90;1.90;;;;;;;8.78;62.67;96411.83;108857;1251;95543;-77
2023/02/21 03:39:11;;;;;;;5.40;1.80;;;;;;;8.79;62.74;96417.81;108959;1251;96083;-75
2023/02/21 03:41:39;;;;;;;4.70;2.40;;;;;;;8.80;62.75;96414.84;108879;1251;103671;-78
2023/02/21 03:44:07;;;;;;;2.90;1.70;;;;;;;8.81;62.79;96415.98;108829;1251;101416;-78
2023/02/21 03:46:35;;;;;;;5.20;1.90;;;;;;;8.83;62.99;96409.20;108850;1251;100060;-75
2023/02/21 03:49:03;;;;;;;3.20;1.80;;;;;;;8.85;63.03;96407.75;108631;1251;95604;-75
2023/02/21 03:51:32;;;;;;;3.70;2.20;;;;;;;8.85;63.04;96411.64;108862;1251;95984;-76
2023/02/21 03:54:00;;;;;;;2.70;1.40;;;;;;;8.85;63.02;96421.54;108919;1251;103558;-77
2023/02/21 03:56:28;;;;;;;2.30;1.50;;;;;;;8.87;63.16;96414.90;108912;1251;101267;-76
2023/02/21 03:58:56;;;;;;;3.60;1.60;;;;;;;8.88;63.14;96408.94;108507;1251;99937;-75
2023/02/21 04:01:24;;;;;;;2.40;1.60;;;;;;;8.89;63.11;96418.98;108566;1251;95618;-75
2023/02/21 04:03:53;;;;;;;4.10;1.70;;;;;;;8.90;62.95;96413.39;108902;1251;95963;-79
2023/02/21 04:06:21;;;;;;;4.30;2.30;;;;;;;8.90;63.02;96412.39;108923;1251;103527;-77
2023/02/21 04:08:49;;;;;;;2.60;2.10;;;;;;;8.90;63.09;96410.08;108662;1251;101282;-77
2023/02/21 04:11:21;;;;;;;3.60;1.70;;;;;;;8.91;63.11;96413.26;108938;1251;99952;-74
2023/02/21 04:13:50;;;;;;;3.10;1.60;;;;;;;8.91;63.14;96412.59;109039;1251;95556;-74
2023/02/21 04:16:18;;;;;;;4.00;1.90;;;;;;;8.92;63.13;96408.48;109058;1251;96052;-74
2023/02/21 04:18:46;;;;;;;3.80;2.70;;;;;;;8.93;63.21;96417.41;109017;1250;103552;-75
2023/02/21 04:21:18;;;;;;;3.40;2.30;;;;;;;8.92;63.08;96413.98;109063;1251;101257;-74
2023/02/21 04:23:46;;;;;;;;;;;;;;;8.89;63.09;96407.68;108731;1251;99146;-76
2023/02/21 04:26:14;;;;;;;4.80;2.80;;;;;;;8.87;63.18;96405.92;108997;1251;95622;-75
2023/02/21 04:28:42;;;;;;;2.50;1.70;;;;;;;8.86;63.33;96406.71;108994;1250;95993;-77
2023/02/21 04:31:11;;;;;;;4.30;2.30;;;;;;;8.87;63.23;96406.41;109054;1249;102185;-76
2023/02/21 04:33:39;;;;;;;2.30;2.10;;;;;;;8.87;63.30;96402.02;109035;1251;101464;-77
2023/02/21 04:36:07;;;;;;;2.60;1.90;;;;;;;8.89;63.39;96400.06;108685;1250;98317;-75
2023/02/21 04:38:36;;;;;;;5.20;2.50;;;;;;;8.91;63.40;96404.77;108979;1251;95678;-74
2023/02/21 04:41:05;;;;;;;2.10;1.80;;;;;;;8.91;63.49;96404.39;109045;1251;95965;-75
2023/02/21 04:43:33;;;;;;;3.80;1.80;;;;;;;8.91;63.55;96406.66;109033;1250;103554;-74
2023/02/21 04:46:02;;;;;;;3.00;1.80;;;;;;;8.91;63.53;96405.21;109058;1250;100442;-74
2023/02/21 04:48:30;;;;;;;3.80;2.40;;;;;;;8.92;63.56;96405.29;109031;1250;99937;-75
2023/02/21 04:50:58;;;;;;;2.20;1.70;;;;;;;8.92;63.46;96403.02;109034;1250;95519;-74
2023/02/21 04:53:26;;;;;;;3.40;1.90;;;;;;;8.92;63.56;96400.86;109072;1251;95984;-77
2023/02/21 04:55:54;;;;;;;5.40;2.50;;;;;;;8.93;63.51;96411.73;108746;1251;103608;-77
2023/02/21 04:58:23;;;;;;;3.30;1.80;;;;;;;8.93;63.47;96403.16;109093;1251;101384;-74
2023/02/21 05:00:51;;;;;;;4.60;2.40;;;;;;;8.92;63.57;96407.65;108714;1249;101186;-77
2023/02/21 05:03:19;;;;;;;4.70;2.10;;;;;;;8.91;63.67;96404.89;108987;1249;95537;-74
2023/02/21 05:05:48;;;;;;;3.50;2.40;;;;;;;8.92;63.71;96409.31;109080;1250;96439;-75
2023/02/21 05:08:16;;;;;;;4.20;2.20;;;;;;;8.92;63.62;96416.92;109029;1251;103351;-78
2023/02/21 05:10:45;;;;;;;10.70;5.10;;;;;;;8.91;63.71;96403.60;109087;1250;101569;-78
2023/02/21 05:13:14;;;;;;;5.80;3.10;;;;;;;8.92;63.64;96410.38;109034;1250;100038;-75
2023/02/21 05:15:43;;;;;;;3.90;2.30;;;;;;;8.91;63.66;96420.33;109027;1251;95562;-75
2023/02/21 05:18:11;;;;;;;4.00;2.40;;;;;;;8.92;63.75;96423.27;109086;1251;96055;-75
2023/02/21 05:20:39;;;;;;;4.70;2.80;;;;;;;8.93;63.75;96427.27;109097;1251;103551;-75
2023/02/21 05:23:08;;;;;;;4.00;2.00;;;;;;;8.93;63.81;96425.77;109037;1249;101468;-75
2023/02/21 05:25:36;;;;;;;3.10;1.70;;;;;;;8.92;63.90;96430.80;109027;1250;100082;-77
2023/02/21 05:28:04;;;;;;;3.80;1.70;;;;;;;8.93;64.16;96433.25;109062;1250;95567;-75
2023/02/21 05:30:32;;;;;;;3.10;1.80;;;;;;;8.96;64.12;96445.27;109038;1251;95986;-73
2023/02/21 05:33:00;;;;;;;4.60;2.50;;;;;;;8.97;64.16;96447.50;109067;1251;103735;-78
2023/02/21 05:35:29;;;;;;;2.50;1.90;;;;;;;8.94;64.29;96448.19;108760;1251;100549;-74
2023/02/21 05:37:57;;;;;;;2.80;1.80;;;;;;;8.92;64.30;96449.63;108978;1251;99907;-73
2023/02/21 05:40:25;;;;;;;2.30;1.90;;;;;;;8.88;64.45;96451.41;109017;1251;95569;-78
2023/02/21 05:42:53;;;;;;;4.50;2.30;;;;;;;8.86;64.67;96453.17;108734;1251;96040;-78
2023/02/21 05:45:21;;;;;;;3.70;2.50;;;;;;;8.85;64.80;96452.80;109034;1250;103250;-75
2023/02/21 05:47:49;;;;;;;3.60;3.00;;;;;;;8.82;64.85;96448.90;109061;1251;101423;-78
2023/02/21 05:50:17;;;;;;;3.30;2.00;;;;;;;8.83;64.99;96454.98;108728;1251;100083;-77
2023/02/21 05:52:45;;;;;;;3.40;2.10;;;;;;;8.82;64.92;96447.38;109050;1251;95544;-75
2023/02/21 05:55:14;;;;;;;2.70;1.70;;;;;;;8.77;65.14;96447.30;109065;1251;95614;-78
2023/02/21 05:57:42;;;;;;;4.50;2.40;;;;;;;8.72;65.33;96445.20;108698;1251;104462;-80
2023/02/21 06:00:26;;;;;;;4.60;2.30;;;;;;;8.67;65.63;96445.30;108989;1250;101097;-77
2023/02/21 06:02:56;;;;;;;4.30;2.30;;;;;;;8.61;65.90;96451.77;108710;1251;100172;-75
2023/02/21 06:05:24;;;;;;;5.50;2.30;;;;;;;8.58;65.97;96453.75;108985;1251;95567;-74
2023/02/21 06:07:52;;;;;;;4.40;1.90;;;;;;;8.53;66.13;96451.27;109079;1249;96000;-78
2023/02/21 06:10:20;;;;;;;2.60;2.00;;;;;;;8.48;66.44;96448.70;108706;1251;103881;-76
2023/02/21 06:12:49;;;;;;;3.40;2.00;;;;;;;8.43;66.53;96446.98;108741;1251;101298;-75
2023/02/21 06:15:17;;;;;;;2.30;2.00;;;;;;;8.38;67.02;96448.77;109030;1251;100009;-79
2023/02/21 06:17:45;;;;;;;3.40;2.30;;;;;;;8.35;67.23;96463.19;108972;1251;95547;-74
2023/02/21 06:20:15;;;;;;;4.30;2.10;;;;;;;8.32;67.29;96466.11;109046;1251;95973;-78
2023/02/21 06:22:44;;;;;;;5.20;2.70;;;;;;;8.29;67.52;96458.09;108765;1251;103578;-76
2023/02/21 06:25:12;;;;;;;2.90;1.80;;;;;;;8.24;67.73;96462.86;108955;1252;101340;-78
2023/02/21 06:27:40;;;;;;;4.10;2.50;;;;;;;8.19;67.94;96466.27;109005;1251;99729;-76
2023/02/21 06:30:09;;;;;;;2.90;2.00;;;;;;;8.17;68.24;96474.56;109039;1251;95527;-75
2023/02/21 06:32:37;;;;;;;4.80;2.20;;;;;;;8.16;68.35;96474.69;108695;1251;96004;-74
2023/02/21 06:35:05;;;;;;;2.70;2.00;;;;;;;8.16;68.39;96476.21;109041;1250;103103;-75
2023/02/21 06:37:33;;;;;;;4.60;2.50;;;;;;;8.17;68.65;96485.05;109012;1249;101229;-74
2023/02/21 06:40:03;;;;;;;1.90;1.70;;;;;;;8.17;68.62;96487.95;109089;1251;100399;-74
2023/02/21 06:42:32;;;;;;;3.20;2.40;;;;;;;8.16;68.61;96486.69;109021;1251;95556;-74
2023/02/21 06:45:00;;;;;;;5.30;2.80;;;;;;;8.16;68.80;96489.38;109067;1251;96027;-75
2023/02/21 06:47:28;;;;;;;5.50;2.10;;;;;;;8.15;68.95;96494.83;108696;1257;103899;-75
2023/02/21 06:49:56;;;;;;;5.20;2.40;;;;;;;8.18;69.21;96494.65;109016;1251;101588;-74
2023/02/21 06:52:24;;;;;;;3.40;1.60;;;;;;;8.22;69.28;96493.37;109005;1251;99964;-75
2023/02/21 06:54:53;;;;;;;3.70;2.00;;;;;;;8.26;69.33;96490.83;108702;1251;95598;-76
2023/02/21 06:57:21;;;;;;;4.40;2.10;;;;;;;8.30;69.35;96490.06;109075;1251;96084;-75
2023/02/21 06:59:49;;;;;;;4.60;2.60;;;;;;;8.32;69.29;96489.61;109076;1251;103381;-74
2023/02/21 07:02:20;;;;;;;4.20;2.30;;;;;;;8.32;69.47;96497.23;109076;1250;101079;-77
2023/02/21 07:04:48;;;;;;;5.50;2.40;;;;;;;8.29;69.50;96501.42;108991;1250;99926;-76
2023/02/21 07:07:17;;;;;;;3.30;1.70;;;;;;;8.28;69.60;96501.52;109031;1251;95530;-74
2023/02/21 07:09:45;;;;;;;3.40;1.70;;;;;;;8.27;69.74;96494.74;109057;1251;96010;-77
2023/02/21 07:12:13;;;;;;;4.90;2.30;;;;;;;8.27;69.81;96498.45;109003;1253;103701;-74
2023/02/21 07:14:41;;;;;;;3.50;2.10;;;;;;;8.25;70.05;96493.71;109068;1250;100407;-74
2023/02/21 07:17:09;;;;;;;5.10;2.40;;;;;;;8.26;70.03;96493.92;109050;1250;99348;-73
2023/02/21 07:19:37;;;;;;;2.30;2.10;;;;;;;8.27;70.03;96501.11;109027;1250;95942;-74
2023/02/21 07:22:06;;;;;;;4.30;2.20;;;;;;;8.27;69.99;96504.38;108735;1250;96082;-74
2023/02/21 07:24:34;;;;;;;2.50;1.90;;;;;;;8.27;70.20;96504.05;109023;1251;103157;-74
2023/02/21 07:27:02;;;;;;;3.60;2.10;;;;;;;8.27;70.23;96497.05;109055;1251;101308;-74
2023/02/21 07:29:31;;;;;;;2.30;1.90;;;;;;;8.27;70.12;96509.54;108987;1249;99838;-74
2023/02/21 07:31:59;;;;;;;3.10;2.30;;;;;;;8.27;70.32;96513.14;108992;1251;95525;-74
2023/02/21 07:34:27;;;;;;;3.50;2.60;;;;;;;8.28;70.53;96511.12;108708;1251;97098;-74
2023/02/21 07:36:55;;;;;;;2.80;2.30;;;;;;;8.28;70.76;96523.77;109045;1249;103346;-78
2023/02/21 07:39:23;;;;;;;2.20;2.00;;;;;;;8.28;70.72;96528.95;108840;1249;101476;-75
2023/02/21 07:41:53;;;;;;;3.30;2.10;;;;;;;8.29;70.94;96532.29;109021;1251;99812;-76
2023/02/21 07:44:21;;;;;;;3.80;2.00;;;;;;;8.32;71.04;96527.30;108860;1251;95561;-77
2023/02/21 07:46:49;;;;;;;2.80;1.60;;;;;;;8.34;70.91;96528.80;109014;1249;95985;-74
2023/02/21 07:49:17;;;;;;;2.80;1.60;;;;;;;8.40;70.73;96511.91;109052;1249;103111;-74
2023/02/21 07:51:46;;;;;;;2.70;1.90;;;;;;;8.55;70.84;96520.02;109078;1250;101467;-74
2023/02/21 07:54:15;;;;;;;3.60;2.00;;;;;;;8.73;70.72;96523.60;108994;1251;100026;-75
2023/02/21 07:56:48;;;;;;;3.40;2.20;;;;;;;8.86;70.63;96524.67;108781;1250;178743;-74
2023/02/21 07:59:17;;;;;;;5.00;1.80;;;;;;;8.94;70.45;96533.40;108730;1251;96069;-73
2023/02/21 08:01:46;;;;;;;1.80;1.40;;;;;;;9.00;70.10;96532.89;108945;1251;103533;-74
2023/02/21 08:04:19;;;;;;;3.80;1.30;;;;;;;9.07;69.91;96527.58;108614;1251;101414;-74
2023/02/21 08:06:48;;;;;;;1.70;1.20;;;;;;;9.16;69.54;96528.77;108856;1251;108443;-76
2023/02/21 08:09:17;;;;;;;2.40;1.80;;;;;;;9.32;69.41;96527.91;108920;1249;95815;-74
2023/02/21 08:11:45;;;;;;;5.00;2.90;;;;;;;9.49;69.29;96520.17;108892;1251;96054;-76
2023/02/21 08:14:14;;;;;;;4.20;1.90;;;;;;;9.57;69.06;96530.19;108873;1251;103537;-74
2023/02/21 08:16:42;;;;;;;3.70;1.80;;;;;;;9.65;68.73;96529.41;108924;1251;101630;-76
2023/02/21 08:19:10;;;;;;;2.90;1.30;;;;;;;9.73;68.39;96528.83;108898;1251;99908;-74
2023/02/21 08:21:39;;;;;;;4.30;2.20;;;;;;;9.75;68.09;96541.45;108602;1251;95682;-73
2023/02/21 08:24:07;;;;;;;4.40;2.30;;;;;;;9.74;67.90;96541.27;108976;1251;95748;-73
2023/02/21 08:26:35;;;;;;;2.40;1.60;;;;;;;9.74;67.75;96547.23;108994;1250;103535;-73
2023/02/21 08:29:03;;;;;;;20.40;11.20;;;;;;;9.76;67.62;96550.10;109028;1250;100314;-76
2023/02/21 08:31:38;;;;;;;6.40;4.30;;;;;;;9.83;67.57;96548.94;108968;1250;99738;-73
2023/02/21 08:34:08;;;;;;;3.10;2.00;;;;;;;9.91;67.58;96553.30;108673;1251;95628;-74
2023/02/21 08:36:39;;;;;;;2.90;2.30;;;;;;;9.95;67.24;96556.23;108947;1251;96061;-74
2023/02/21 08:39:08;;;;;;;1.50;1.30;;;;;;;9.98;67.21;96552.63;108997;1249;103740;-73
2023/02/21 08:41:38;;;;;;;1.60;1.20;;;;;;;10.03;67.04;96551.84;108714;1250;101613;-73
2023/02/21 08:44:07;;;;;;;1.30;1.10;;;;;;;10.07;66.96;96558.01;108980;1249;99066;-75
2023/02/21 08:46:35;;;;;;;2.00;1.40;;;;;;;10.10;66.84;96556.36;109021;1250;95527;-75
2023/02/21 08:49:04;;;;;;;3.10;1.70;;;;;;;10.10;66.77;96562.63;108988;1250;95975;-74
2023/02/21 08:51:34;;;;;;;2.60;1.60;;;;;;;10.05;66.66;96566.18;109029;1251;103257;-76
2023/02/21 08:54:02;;;;;;;2.00;1.40;;;;;;;9.97;66.59;96573.64;109052;1249;101561;-74
2023/02/21 08:56:31;;;;;;;6.50;5.60;;;;;;;9.92;66.55;96566.21;108986;1249;99582;-74
2023/02/21 08:58:59;;;;;;;5.80;3.80;;;;;;;9.92;66.49;96564.97;109031;1250;95561;-72
2023/02/21 09:01:33;;;;;;;4.10;3.00;;;;;;;9.95;66.28;96572.98;108857;1251;95998;-74
2023/02/21 09:04:02;;;;;;;1.90;1.50;;;;;;;9.95;66.15;96571.16;109035;1250;103541;-75
2023/02/21 09:06:31;;;;;;;6.20;4.10;;;;;;;9.93;65.82;96566.25;109055;1250;101744;-75
2023/02/21 09:08:59;;;;;;;1.90;1.40;;;;;;;9.91;65.68;96565.91;109003;1249;99729;-75
2023/02/21 09:11:29;;;;;;;1.60;1.10;;;;;;;9.89;65.57;96567.77;108991;1251;95686;-74
2023/02/21 09:13:57;;;;;;;3.20;2.10;;;;;;;9.86;65.32;96582.86;108757;1251;96021;-75
2023/02/21 09:16:25;;;;;;;1.00;0.90;;;;;;;9.80;65.42;96581.81;109076;1250;104535;-74
2023/02/21 09:18:58;;;;;;;2.50;1.20;;;;;;;9.73;65.50;96576.75;109017;1251;101281;-75
2023/02/21 09:21:28;;;;;;;1.70;1.30;;;;;;;9.70;65.46;96572.30;108954;1249;100150;-74
2023/02/21 09:24:01;;;;;;;2.10;1.50;;;;;;;9.67;65.43;96577.69;109011;1249;95576;-74
2023/02/21 09:26:31;;;;;;;12.20;6.40;;;;;;;9.66;65.77;96588.02;108986;1250;96067;-73
2023/02/21 09:29:00;;;;;;;3.50;1.70;;;;;;;9.64;65.94;96599.45;108657;1251;103725;-75
2023/02/21 09:31:28;;;;;;;1.70;1.30;;;;;;;9.58;66.14;96596.77;108713;1250;101257;-74
2023/02/21 09:33:57;;;;;;;2.00;1.00;;;;;;;9.58;66.44;96590.48;109008;1249;99929;-77
2023/02/21 09:36:25;;;;;;;1.40;1.00;;;;;;;9.59;66.62;96598.05;108669;1250;95676;-74
2023/02/21 09:38:54;;;;;;;1.30;1.10;;;;;;;9.60;66.69;96609.98;109063;1250;96437;-74
2023/02/21 09:41:22;;;;;;;3.50;1.00;;;;;;;9.59;66.79;96616.22;109018;1250;103590;-74
2023/02/21 09:43:54;;;;;;;1.50;1.10;;;;;;;9.55;66.84;96608.42;108994;1250;101501;-74
2023/02/21 09:46:50;;;;;;;2.00;1.20;;;;;;;9.49;66.84;96604.64;109026;1249;100004;-74
2023/02/21 09:49:25;;;;;;;3.90;1.50;;;;;;;9.42;66.83;96609.85;108195;1259;95576;-74
2023/02/21 09:51:55;;;;;;;3.30;2.20;;;;;;;9.38;66.94;96610.85;108237;1259;96105;-74
2023/02/21 09:54:25;;;;;;;9.90;7.40;;;;;;;9.36;67.10;96620.48;108227;1259;103595;-74
2023/02/21 09:56:54;;;;;;;2.90;2.20;;;;;;;9.36;67.15;96623.77;108166;1259;101367;-76
2023/02/21 09:59:24;;;;;;;3.80;2.30;;;;;;;9.36;67.29;96623.51;108226;1259;100208;-74
2023/02/21 10:02:12;;;;;;;6.60;2.60;;;;;;;9.36;67.14;96611.20;108230;1259;95668;-77
2023/02/21 10:05:04;;;;;;;6.30;2.60;;;;;;;9.37;67.16;96606.30;108237;1259;96520;-74
2023/02/21 10:07:39;;;;;;;3.00;1.50;;;;;;;9.40;67.06;96613.86;108291;1259;103520;-74
2023/02/21 10:10:15;;;;;;;2.80;1.60;;;;;;;9.41;66.73;96621.86;108148;1259;101100;-77
2023/02/21 10:13:04;;;;;;;3.20;1.90;;;;;;;9.38;66.78;96628.05;108170;1259;100273;-74
2023/02/21 10:15:35;;;;;;;3.30;2.20;;;;;;;9.35;66.67;96626.25;108178;1259;95623;-73
2023/02/21 10:18:32;;;;;;;5.40;3.50;;;;;;;9.35;66.65;96632.30;108187;1260;96204;-74
2023/02/21 10:21:04;;;;;;;4.00;2.10;;;;;;;9.42;66.59;96616.44;108193;1259;103394;-74
2023/02/21 10:23:33;;;;;;;;;;;;;;;9.47;66.26;96616.92;108043;1259;100422;-77
2023/02/21 10:26:09;;;;;;;3.40;1.90;;;;;;;9.57;66.09;96622.83;108258;1251;99635;-75
2023/02/21 10:28:38;;;;;;;1.90;1.30;;;;;;;9.91;65.96;96615.10;108887;1251;95545;-74
2023/02/21 10:31:16;;;;;;;2.70;1.50;;;;;;;10.29;65.74;96613.00;108926;1251;96063;-74
2023/02/21 10:33:44;;;;;;;2.40;1.50;;;;;;;10.77;65.36;96614.79;108906;1251;103524;-75
2023/02/21 10:36:17;;;;;;;3.80;1.70;;;;;;;11.13;64.54;96614.50;108841;1251;101476;-74
2023/02/21 10:39:11;;;;;;;1.70;1.50;;;;;;;11.23;63.84;96614.83;108690;1251;99942;-74
2023/02/21 10:41:41;;;;;;;2.10;1.70;;;;;;;11.11;63.45;96615.11;108827;1251;95558;-74
2023/02/21 10:44:31;;;;;;;2.30;1.30;;;;;;;10.96;63.58;96625.87;108813;1251;95918;-74
2023/02/21 10:47:08;;;;;;;3.30;1.50;;;;;;;10.77;63.55;96634.27;108781;1253;103229;-76
2023/02/21 10:49:40;;;;;;;2.40;1.20;;;;;;;10.57;63.71;96643.59;108771;1252;101013;-76
2023/02/21 10:52:08;;;;;;;1.40;1.10;;;;;;;10.38;64.00;96639.73;108783;1252;99881;-73
2023/02/21 10:54:37;;;;;;;3.10;1.70;;;;;;;10.25;64.49;96633.73;108744;1253;95880;-76
2023/02/21 10:57:08;;;;;;;3.00;1.60;;;;;;;10.31;64.65;96618.83;108782;1253;97036;-75
2023/02/21 10:59:41;;;;;;;2.90;1.90;;;;;;;10.64;64.79;96618.83;108773;1252;103412;-73
2023/02/21 11:02:34;;;;;;;1.60;1.50;;;;;;;11.04;64.50;96626.27;108796;1253;101455;-73
2023/02/21 11:05:17;;;;;;;1.90;1.50;;;;;;;11.31;64.06;96623.41;108743;1252;99494;-77
2023/02/21 11:08:00;;;;;;;1.90;1.40;;;;;;;11.34;63.40;96613.80;108828;1253;95568;-73
2023/02/21 11:10:39;;;;;;;2.20;1.60;;;;;;;11.28;62.91;96621.65;108776;1253;96479;-74
2023/02/21 11:13:17;;;;;;;2.40;1.60;;;;;;;11.11;62.78;96620.23;108960;1250;101723;-74
2023/02/21 11:15:46;;;;;;;2.00;1.70;;;;;;;10.95;62.95;96618.48;108903;1249;101314;-77
2023/02/21 11:18:19;;;;;;;2.40;1.50;;;;;;;10.94;63.07;96619.21;108629;1251;99908;-76
2023/02/21 11:20:47;;;;;;;1.90;1.60;;;;;;;11.15;63.18;96612.10;108901;1250;95552;-74
2023/02/21 11:23:31;;;;;;;2.80;1.40;;;;;;;11.24;62.53;96612.27;108888;1251;96081;-74
2023/02/21 11:26:12;;;;;;;3.20;1.40;;;;;;;11.24;62.38;96619.33;108948;1250;103227;-75
2023/02/21 11:28:43;;;;;;;3.10;1.90;;;;;;;11.12;62.19;96625.86;109034;1250;101324;-74
2023/02/21 11:31:33;;;;;;;2.90;2.00;;;;;;;10.97;62.34;96623.19;108627;1251;99875;-74
2023/02/21 11:34:07;;;;;;;2.20;1.70;;;;;;;10.90;62.50;96631.16;108920;1250;95619;-77
2023/02/21 11:36:46;;;;;;;2.40;1.90;;;;;;;10.84;62.51;96632.96;108998;1250;96469;-74
2023/02/21 11:39:26;;;;;;;2.00;1.60;;;;;;;10.88;62.73;96632.04;109021;1250;103262;-74
2023/02/21 11:41:56;;;;;;;3.40;2.50;;;;;;;11.11;62.71;96631.56;108623;1251;101706;-74
2023/02/21 11:44:33;;;;;;;3.10;1.80;;;;;;;11.17;62.47;96637.57;108939;1249;100227;-77
2023/02/21 11:47:23;;;;;;;5.60;3.50;;;;;;;11.11;62.26;96637.04;108934;1249;95697;-74
2023/02/21 11:50:01;;;;;;;2.40;1.90;;;;;;;11.04;62.19;96633.09;108971;1250;96483;-74
2023/02/21 11:52:37;;;;;;;2.30;2.00;;;;;;;11.25;62.45;96631.84;108999;1249;103751;-77
2023/02/21 11:55:16;;;;;;;2.30;1.40;;;;;;;11.42;62.15;96634.23;109007;1250;101758;-75
2023/02/21 11:57:51;;;;;;;2.60;1.90;;;;;;;11.45;61.87;96636.76;108960;1250;98492;-74
2023/02/21 12:00:34;;;;;;;2.40;1.50;;;;;;;11.45;61.74;96635.56;108966;1250;95850;-75
2023/02/21 12:03:02;;;;;;;;;;;;;;;11.44;61.54;96631.83;108999;1250;95738;-77
2023/02/21 12:06:15;;;;;;;2.20;1.40;;;;;;;11.41;61.49;96635.54;108901;1250;103877;-76
2023/02/21 12:09:22;;;;;;;2.50;1.70;;;;;;;11.50;61.42;96632.91;108289;1259;101485;-77
2023/02/21 12:11:50;;;;;;;2.90;1.80;;;;;;;11.94;61.39;96627.56;107902;1265;100255;-75
2023/02/21 12:14:21;;;;;;;2.20;1.50;;;;;;;12.32;60.33;96610.00;107878;1265;95712;-75
2023/02/21 12:17:16;;;;;;;2.50;1.50;;;;;;;12.62;59.63;96618.58;107770;1265;96097;-74
2023/02/21 12:20:08;;;;;;;1.90;1.40;;;;;;;12.87;59.02;96611.27;107917;1265;103821;-74
2023/02/21 12:22:58;;;;;;;3.20;1.60;;;;;;;13.10;58.71;96601.53;107877;1265;101248;-75
2023/02/21 12:26:06;;;;;;;2.50;1.60;;;;;;;13.34;58.43;96605.13;107912;1264;100051;-74
2023/02/21 12:28:53;;;;;;;2.40;1.70;;;;;;;13.35;57.86;96602.98;107932;1264;95683;-75
2023/02/21 12:31:26;;;;;;;2.40;1.50;;;;;;;13.24;57.75;96602.64;107986;1264;96714;-75
2023/02/21 12:34:13;;;;;;;2.30;1.20;;;;;;;13.05;57.51;96602.85;107978;1264;103556;-75
2023/02/21 12:37:03;;;;;;;3.00;1.60;;;;;;;12.85;57.20;96604.42;107929;1264;101913;-74
2023/02/21 12:39:58;;;;;;;2.30;1.70;;;;;;;12.70;57.25;96607.45;108108;1258;99882;-75
2023/02/21 12:42:57;;;;;;;1.90;1.20;;;;;;;12.49;57.27;96627.00;108036;1262;95693;-76
2023/02/21 12:45:39;;;;;;;3.30;1.60;;;;;;;12.11;57.62;96629.48;107945;1262;95904;-73
2023/02/21 12:48:12;;;;;;;2.10;1.40;;;;;;;11.63;58.32;96627.37;108092;1259;103543;-74
2023/02/21 12:50:45;;;;;;;2.10;1.20;;;;;;;11.31;59.17;96626.36;108294;1259;101170;-74
2023/02/21 12:53:26;;;;;;;2.00;1.60;;;;;;;11.13;59.62;96619.52;108304;1259;100371;-75
2023/02/21 12:56:12;;;;;;;3.20;1.40;;;;;;;11.15;59.88;96621.45;108171;1261;95701;-74
2023/02/21 12:58:40;;;;;;;2.30;1.80;;;;;;;11.15;59.76;96612.21;108175;1261;96159;-76
2023/02/21 13:01:31;;;;;;;4.80;1.80;;;;;;;11.10;59.89;96618.91;108347;1258;103168;-74
2023/02/21 13:04:17;;;;;;;2.20;1.50;;;;;;;11.02;59.90;96610.56;108349;1258;109863;-73
2023/02/21 13:07:09;;;;;;;2.70;1.40;;;;;;;10.91;59.98;96613.42;108292;1258;99639;-73
2023/02/21 13:10:02;;;;;;;2.70;1.70;;;;;;;10.78;60.16;96624.21;108281;1258;95686;-73
2023/02/21 13:12:45;;;;;;;2.80;2.10;;;;;;;10.62;60.74;96627.53;108067;1261;95797;-73
2023/02/21 13:15:24;;;;;;;2.10;1.60;;;;;;;10.54;61.38;96634.54;108137;1261;102106;-77
2023/02/21 13:18:06;;;;;;;3.50;1.80;;;;;;;10.49;61.89;96629.30;108122;1261;101025;-73
2023/02/21 13:20:44;;;;;;;3.50;2.00;;;;;;;10.62;62.60;96631.09;108490;1255;99825;-76
2023/02/21 13:23:31;;;;;;;2.30;1.50;;;;;;;10.72;62.38;96633.08;108560;1255;95628;-74
2023/02/21 13:26:14;;;;;;;2.80;1.80;;;;;;;10.78;62.09;96628.77;108604;1254;96092;-76
2023/02/21 13:28:44;;;;;;;2.30;1.50;;;;;;;10.77;61.71;96632.61;108605;1255;103575;-74
2023/02/21 13:31:22;;;;;;;3.20;1.90;;;;;;;10.85;61.91;96628.76;108357;1257;101154;-76
2023/02/21 13:34:00;;;;;;;2.50;1.80;;;;;;;11.23;62.06;96625.54;108297;1255;99055;-75
2023/02/21 13:36:33;;;;;;;4.20;2.10;;;;;;;11.53;61.50;96626.38;108562;1255;95634;-74
2023/02/21 13:39:13;;;;;;;5.00;2.20;;;;;;;11.69;60.97;96627.61;108365;1255;95587;-73
2023/02/21 13:41:55;;;;;;;4.80;2.20;;;;;;;11.78;60.65;96628.48;108589;1256;103057;-76
2023/02/21 13:44:33;;;;;;;2.30;1.70;;;;;;;11.73;60.11;96631.21;108716;1251;101665;-74
2023/02/21 13:47:23;;;;;;;6.40;3.50;;;;;;;11.54;59.71;96632.42;108857;1251;99879;-73
2023/02/21 13:49:59;;;;;;;8.40;4.70;;;;;;;11.32;59.67;96637.36;108852;1251;95557;-74
2023/02/21 13:52:35;;;;;;;6.50;4.00;;;;;;;11.17;59.75;96640.64;108914;1251;96047;-74
2023/02/21 13:55:12;;;;;;;7.00;4.20;;;;;;;11.03;59.76;96636.23;108867;1251;103441;-74
2023/02/21 13:58:11;;;;;;;4.80;2.90;;;;;;;10.83;59.96;96643.85;108917;1251;101264;-74
2023/02/21 14:00:39;;;;;;;4.40;2.50;;;;;;;10.74;60.25;96642.21;108832;1251;99454;-77
2023/02/21 14:03:08;;;;;;;5.90;4.10;;;;;;;10.67;60.17;96639.32;108911;1251;95491;-74
2023/02/21 14:05:48;;;;;;;5.10;2.50;;;;;;;10.60;60.17;96643.52;108978;1251;96016;-74
2023/02/21 14:08:29;;;;;;;5.40;3.30;;;;;;;10.53;60.51;96641.90;108896;1251;103560;-74
2023/02/21 14:11:15;;;;;;;3.20;2.50;;;;;;;10.46;60.57;96643.08;108856;1251;101124;-76